Nearby METAR Reports

Actuele Vliegveldwaarnemingen NL (METAR).Zie KNMI uitleg METAR hier

EHAM - Amsterdam/Schiph, Netherlands
Distance from station: ONO 18km
Updated: 28/01/2023 18:25
Meestal bewolkt
Meestal bewolkt
 Wind van W
Wind: W 11 km/h
Temperatuur: 4°C
Wind Chill: 1°C
Dauwpunt: 1°C
Vochtigheid: 81%
Barometer: 1030 hPa
Clouds: Meestal bewolkt
Visibility: 10 km
Cloud details: Meestal bewolkt 1067 m
2023/01/28 17:25 EHAM 281725Z 26006KT 9999 BKN035 04/01 Q1030 NOSIG
EHKD - DE KOOY/DE KOOY
Updated: 28/01/2023 18:38
Zwaar bewolkt
Zwaar bewolkt
 Wind van varies
Wind: varies 4 km/h
Temperatuur: 5°C
Dauwpunt: 2°C
Vochtigheid: 81%
Barometer: 1029 hPa
Clouds: Zwaar bewolkt
Visibility: 10 km
Cloud details: Zwaar bewolkt 732 m
2023/01/28 17:38 EHKD 281738Z AUTO VRB02KT 9999 OVC024 05/02 Q1029 WHT NOSIG
 
EHLW - LEEUWARDEN/LEEUWARDEN
Updated: 28/01/2023 18:25
Zwaar bewolkt
Zwaar bewolkt
 Wind van WZW
Wind: WZW 11 km/h
Temperatuur: 4°C
Wind Chill: 1°C
Dauwpunt: 2°C
Vochtigheid: 87%
Barometer: 1029 hPa
Clouds: Zwaar bewolkt
Visibility: 10 km
Cloud details: Zwaar bewolkt 914 m
2023/01/28 17:25 EHLW 281725Z AUTO 24006KT 9999 OVC030 04/02 Q1029 BLU
EHVK - VOLKEL/VOLKEL
Updated: 28/01/2023 18:25
Helder
Helder
 Wind van ZW
Wind: ZW 4 km/h
Temperatuur: 0°C
Dauwpunt: -2°C
Vochtigheid: 87%
Barometer: 1030 hPa
Clouds: Helder
Visibility: 10 km
2023/01/28 17:25 EHVK 281725Z AUTO 23002KT 9999 NCD M00/M02 Q1030 BLU
 
EHFS - VLISSINGEN
Updated: 28/01/2023 18:25
Zwaar bewolkt
Zwaar bewolkt
 Wind van varies
Wind: varies 4 km/h
Temperatuur: 4°C
Dauwpunt: 1°C
Vochtigheid: 81%
Barometer: 1031 hPa
Clouds: Zwaar bewolkt
Visibility: 10 km
Cloud details: Zwaar bewolkt 945 m
2023/01/28 17:25 EHFS 281725Z AUTO VRB02KT 9999 OVC031/// 04/01 Q1031
EHEH - EINDHOVEN/EINDHOVEN
Updated: 28/01/2023 18:25
Helder
Helder
 Wind van WZW
Wind: WZW 4 km/h
Temperatuur: -2°C
Dauwpunt: -4°C
Vochtigheid: 86%
Barometer: 1031 hPa
Clouds: Helder
Visibility: 10 km
2023/01/28 17:25 EHEH 281725Z AUTO 25002KT 9999 NCD M02/M04 Q1031 BLU NOSIG
 
EHGR - GILZE-RIJEN/GILZE-RIJEN
Updated: 28/01/2023 18:25
Zwaar bewolkt
Zwaar bewolkt
 Wind van Z
Wind: Z 9 km/h
Temperatuur: 1°C
Wind Chill: -2°C
Dauwpunt: -2°C
Vochtigheid: 81%
Barometer: 1031 hPa
Clouds: Zwaar bewolkt
Visibility: 10 km
Cloud details: Zwaar bewolkt 914 m
2023/01/28 17:25 EHGR 281725Z AUTO 19005KT 140V200 9999 OVC030 01/M02 Q1031 BLU
EHDL - ARNHEM/DEELEN
Updated: 28/01/2023 18:25
Zwaar bewolkt
Zwaar bewolkt
 Wind van Z
Wind: Z 6 km/h
Temperatuur: 2°C
Dauwpunt: -2°C
Vochtigheid: 75%
Barometer: 1030 hPa
Clouds: Zwaar bewolkt
Visibility: 10 km
Cloud details: Gedeeltelijk bewolkt 823 m
Zwaar bewolkt 914 m
2023/01/28 17:25 EHDL 281725Z AUTO 18003KT 130V200 9999 SCT027 OVC030 02/M02 Q1030 BLU
 
EHBK - MAASTRICHT/MAASTRICHT-AACHEN
Updated: 28/01/2023 18:25
Gedeeltelijk bewolkt
Gedeeltelijk bewolkt
 Wind van N
Wind: N 6 km/h
Temperatuur: -1°C
Dauwpunt: -4°C
Vochtigheid: 80%
Barometer: 1030 hPa
Clouds: Gedeeltelijk bewolkt
Visibility: 10 km
Cloud details: Gedeeltelijk bewolkt 610 m
2023/01/28 17:25 EHBK 281725Z AUTO 36003KT 320V030 9999 SCT020 M01/M04 Q1030 NOSIG